createdAt,value
2024-02-07T00:01:30.689Z,12.77
2024-02-07T00:04:00.142Z,12.83
2024-02-07T00:06:27.432Z,12.87
2024-02-07T00:08:54.053Z,12.75
2024-02-07T00:11:21.112Z,12.87
2024-02-07T00:13:47.902Z,12.82
2024-02-07T00:16:14.707Z,12.88
2024-02-07T00:18:41.459Z,12.83
2024-02-07T00:21:09.590Z,12.88
2024-02-07T00:23:36.495Z,12.88
2024-02-07T00:26:03.429Z,12.83
2024-02-07T00:28:30.103Z,12.81
2024-02-07T00:30:57.094Z,12.80
2024-02-07T00:33:23.690Z,12.81
2024-02-07T00:35:50.708Z,12.82
2024-02-07T00:38:17.623Z,12.91
2024-02-07T00:40:44.511Z,12.76
2024-02-07T00:43:15.324Z,12.89
2024-02-07T00:45:43.158Z,12.84
2024-02-07T00:48:09.698Z,12.90
2024-02-07T00:50:36.562Z,12.90
2024-02-07T00:53:03.183Z,12.87
2024-02-07T00:55:30.121Z,12.93
2024-02-07T00:57:56.810Z,12.85
2024-02-07T01:00:24.619Z,12.90
2024-02-07T01:02:51.774Z,12.95
2024-02-07T01:05:19.124Z,12.82
2024-02-07T01:07:45.612Z,12.71
2024-02-07T01:10:12.871Z,12.83
2024-02-07T01:12:40.377Z,12.74
2024-02-07T01:15:08.774Z,12.85
2024-02-07T01:17:35.547Z,12.89
2024-02-07T01:20:07.790Z,12.92
2024-02-07T01:22:34.593Z,12.84
2024-02-07T01:25:01.632Z,12.61
2024-02-07T01:27:28.156Z,12.71
2024-02-07T01:29:56.769Z,12.76
2024-02-07T01:32:23.539Z,12.63
2024-02-07T01:34:50.998Z,12.75
2024-02-07T01:37:17.592Z,12.78
2024-02-07T01:39:44.839Z,12.72
2024-02-07T01:42:12.101Z,12.75
2024-02-07T01:44:39.008Z,12.76
2024-02-07T01:47:13.253Z,12.83
2024-02-07T01:49:45.796Z,12.89
2024-02-07T01:52:14.222Z,12.56
2024-02-07T01:54:41.698Z,12.64
2024-02-07T01:57:08.646Z,12.66
2024-02-07T01:59:40.660Z,12.64
2024-02-07T02:02:08.434Z,12.60
2024-02-07T02:04:35.634Z,12.54
2024-02-07T02:07:02.232Z,12.65
2024-02-07T02:09:30.042Z,12.53
2024-02-07T02:11:58.865Z,12.63
2024-02-07T02:14:27.958Z,12.60
2024-02-07T02:16:54.647Z,12.52
2024-02-07T02:19:22.342Z,12.62
2024-02-07T02:22:23.933Z,12.85
2024-02-07T02:25:03.849Z,12.80
2024-02-07T02:27:39.374Z,12.85
2024-02-07T02:30:20.551Z,12.82
2024-02-07T02:32:49.831Z,12.73
2024-02-07T02:35:19.105Z,12.72
2024-02-07T02:37:46.813Z,12.70
2024-02-07T02:40:13.916Z,12.64
2024-02-07T02:42:40.871Z,12.70
2024-02-07T02:45:08.317Z,12.55
2024-02-07T02:47:34.927Z,12.52
2024-02-07T02:50:02.069Z,12.46
2024-02-07T02:52:29.534Z,12.47
2024-02-07T02:54:57.166Z,12.53
2024-02-07T02:57:23.620Z,12.60
2024-02-07T02:59:51.247Z,12.47
2024-02-07T03:02:20.562Z,12.62
2024-02-07T03:04:50.627Z,12.58
2024-02-07T03:07:36.115Z,12.51
2024-02-07T03:10:06.650Z,12.47
2024-02-07T03:12:33.429Z,12.56
2024-02-07T03:15:00.302Z,12.43
2024-02-07T03:17:26.895Z,12.46
2024-02-07T03:19:53.809Z,12.42
2024-02-07T03:22:20.390Z,12.31
2024-02-07T03:24:47.753Z,12.40
2024-02-07T03:27:14.248Z,12.33
2024-02-07T03:29:40.941Z,12.50
2024-02-07T03:32:08.060Z,12.47
2024-02-07T03:34:37.550Z,11.94
2024-02-07T03:37:05.100Z,11.31
2024-02-07T03:39:31.923Z,10.71
2024-02-07T03:41:58.353Z,10.42
2024-02-07T03:44:25.415Z,10.01
2024-02-07T03:46:52.234Z,9.89
2024-02-07T03:49:21.108Z,9.83
2024-02-07T03:51:47.997Z,9.76
2024-02-07T03:54:15.189Z,9.50
2024-02-07T03:56:41.816Z,9.68
2024-02-07T03:59:08.843Z,9.58
2024-02-07T04:01:35.993Z,9.72
2024-02-07T04:04:06.389Z,9.74
2024-02-07T04:06:34.216Z,9.44
2024-02-07T04:09:05.870Z,9.41
2024-02-07T04:11:32.523Z,9.28
2024-02-07T04:13:59.225Z,9.33
2024-02-07T04:16:44.872Z,9.06
2024-02-07T04:19:30.636Z,9.18
2024-02-07T04:22:15.875Z,9.08
2024-02-07T04:25:01.446Z,9.12
2024-02-07T04:27:47.038Z,9.29
2024-02-07T04:30:32.446Z,9.27
2024-02-07T04:33:17.789Z,9.04
2024-02-07T04:36:03.188Z,9.12
2024-02-07T04:38:48.141Z,9.03
2024-02-07T04:41:33.844Z,8.92
2024-02-07T04:44:18.976Z,9.11
2024-02-07T04:47:04.449Z,8.84
2024-02-07T04:49:49.773Z,8.83
2024-02-07T04:52:35.347Z,8.95
2024-02-07T04:55:20.796Z,8.68
2024-02-07T04:58:06.181Z,8.40
2024-02-07T05:00:51.114Z,8.27
2024-02-07T05:03:36.482Z,8.07
2024-02-07T05:06:21.779Z,8.08
2024-02-07T05:09:07.030Z,7.99
2024-02-07T05:11:52.563Z,7.92
2024-02-07T05:14:38.004Z,7.66
2024-02-07T05:17:04.666Z,7.59
2024-02-07T05:19:31.697Z,7.59
2024-02-07T05:21:58.971Z,7.59
2024-02-07T05:24:25.805Z,7.59
2024-02-07T05:26:52.939Z,7.43
2024-02-07T05:29:19.846Z,7.51
2024-02-07T05:31:46.942Z,7.50
2024-02-07T05:34:14.948Z,7.55
2024-02-07T05:36:41.922Z,7.21
2024-02-07T05:39:08.673Z,7.32
2024-02-07T05:41:35.293Z,7.25
2024-02-07T05:44:02.074Z,7.07
2024-02-07T05:46:28.670Z,6.76
2024-02-07T05:48:55.466Z,6.63
2024-02-07T05:51:23.188Z,6.58
2024-02-07T05:53:49.985Z,6.47
2024-02-07T05:56:16.657Z,6.24
2024-02-07T05:58:43.702Z,6.57
2024-02-07T06:01:11.087Z,6.27
2024-02-07T06:03:38.324Z,6.20
2024-02-07T06:06:06.759Z,6.11
2024-02-07T06:08:33.759Z,6.28
2024-02-07T06:11:00.928Z,6.39
2024-02-07T06:13:28.236Z,6.79
2024-02-07T06:15:54.786Z,6.76
2024-02-07T06:18:21.492Z,6.95
2024-02-07T06:20:48.104Z,6.89
2024-02-07T06:23:15.018Z,7.20
2024-02-07T06:25:42.394Z,7.14
2024-02-07T06:28:09.247Z,7.19
2024-02-07T06:30:35.837Z,7.27
2024-02-07T06:33:04.441Z,7.37
2024-02-07T06:35:31.202Z,7.61
2024-02-07T06:37:58.150Z,7.69
2024-02-07T06:40:24.685Z,7.52
2024-02-07T06:42:51.520Z,7.61
2024-02-07T06:45:18.045Z,7.75
2024-02-07T06:47:44.868Z,7.81
2024-02-07T06:50:11.607Z,7.90
2024-02-07T06:52:40.165Z,7.65
2024-02-07T06:55:06.931Z,7.83
2024-02-07T06:57:34.148Z,7.78
2024-02-07T07:00:00.642Z,7.85
2024-02-07T07:02:27.637Z,7.59
2024-02-07T07:04:54.356Z,7.71
2024-02-07T07:07:21.432Z,7.76
2024-02-07T07:09:47.997Z,7.80
2024-02-07T07:12:14.948Z,7.67
2024-02-07T07:14:41.571Z,7.68
2024-02-07T07:17:08.742Z,7.74
2024-02-07T07:19:35.949Z,7.83
2024-02-07T07:22:02.809Z,7.84
2024-02-07T07:24:29.264Z,7.88
2024-02-07T07:26:56.996Z,7.85
2024-02-07T07:29:24.666Z,7.83
2024-02-07T07:31:51.806Z,7.69
2024-02-07T07:34:18.438Z,7.76
2024-02-07T07:36:45.307Z,7.72
2024-02-07T07:39:11.760Z,7.75
2024-02-07T07:41:39.234Z,7.81
2024-02-07T07:44:06.273Z,7.62
2024-02-07T07:46:33.368Z,7.22
2024-02-07T07:49:00.832Z,7.20
2024-02-07T07:51:27.886Z,7.34
2024-02-07T07:53:55.463Z,7.37
2024-02-07T07:56:23.647Z,7.29
2024-02-07T07:58:53.155Z,7.42
2024-02-07T08:01:22.109Z,7.35
2024-02-07T08:03:49.027Z,7.39
2024-02-07T08:06:16.406Z,7.56
2024-02-07T08:08:43.275Z,7.80
2024-02-07T08:11:10.121Z,7.78
2024-02-07T08:13:36.787Z,7.85
2024-02-07T08:16:03.941Z,7.59
2024-02-07T08:18:31.072Z,7.65
2024-02-07T08:20:58.074Z,7.43
2024-02-07T08:23:25.008Z,7.45
2024-02-07T08:25:52.208Z,7.61
2024-02-07T08:28:19.062Z,7.44
2024-02-07T08:30:45.868Z,7.66
2024-02-07T08:33:13.214Z,7.58
2024-02-07T08:35:40.786Z,7.72
2024-02-07T08:38:07.462Z,8.04
2024-02-07T08:40:34.486Z,7.86
2024-02-07T08:43:03.724Z,7.93
2024-02-07T08:45:30.432Z,7.93
2024-02-07T08:47:56.716Z,7.63
2024-02-07T08:50:23.481Z,7.75
2024-02-07T08:52:49.846Z,7.93
2024-02-07T08:55:16.691Z,8.04
2024-02-07T08:57:43.859Z,8.01
2024-02-07T09:00:11.271Z,8.16
2024-02-07T09:02:37.674Z,8.15
2024-02-07T09:05:08.020Z,8.23
2024-02-07T09:07:35.057Z,8.11
2024-02-07T09:10:02.212Z,8.18
2024-02-07T09:12:28.882Z,8.30
2024-02-07T09:14:59.840Z,8.24
2024-02-07T09:17:27.320Z,8.48
2024-02-07T09:19:54.532Z,8.36
2024-02-07T09:22:20.984Z,8.17
2024-02-07T09:24:47.660Z,8.09
2024-02-07T09:27:14.173Z,8.18
2024-02-07T09:29:40.885Z,7.99
2024-02-07T09:32:07.705Z,7.94
2024-02-07T09:34:34.541Z,7.95
2024-02-07T09:37:02.240Z,8.15
2024-02-07T09:39:29.073Z,8.04
2024-02-07T09:41:59.466Z,8.24
2024-02-07T09:44:29.030Z,8.18
2024-02-07T09:47:00.215Z,8.30
2024-02-07T09:49:29.562Z,8.47
2024-02-07T09:51:57.228Z,8.38
2024-02-07T09:54:24.587Z,8.51
2024-02-07T09:56:52.760Z,8.53
2024-02-07T09:59:21.253Z,8.51
2024-02-07T10:01:48.310Z,8.40
2024-02-07T10:04:30.822Z,8.44
2024-02-07T10:06:58.234Z,8.35
2024-02-07T10:09:29.376Z,8.34
2024-02-07T10:11:57.248Z,8.33
2024-02-07T10:14:26.098Z,8.55
2024-02-07T10:16:53.576Z,8.74
2024-02-07T10:19:21.387Z,8.89
2024-02-07T10:21:48.824Z,8.79
2024-02-07T10:24:16.432Z,8.71
2024-02-07T10:26:47.592Z,8.65
2024-02-07T10:29:15.331Z,8.53
2024-02-07T10:31:42.478Z,8.53
2024-02-07T10:34:20.265Z,8.58
2024-02-07T10:36:46.940Z,8.31
2024-02-07T10:39:13.827Z,8.19
2024-02-07T10:41:40.175Z,8.29
2024-02-07T10:44:08.599Z,8.36
2024-02-07T10:46:35.766Z,8.41
2024-02-07T10:49:03.350Z,8.37
2024-02-07T10:51:33.695Z,8.39
2024-02-07T10:54:05.510Z,8.35
2024-02-07T10:56:37.797Z,8.53
2024-02-07T10:59:05.381Z,8.41
2024-02-07T11:01:32.945Z,8.26
2024-02-07T11:04:00.780Z,8.39
2024-02-07T11:06:28.511Z,8.33
2024-02-07T11:08:57.331Z,8.29
2024-02-07T11:11:28.478Z,8.04
2024-02-07T11:13:57.802Z,8.09
2024-02-07T11:16:24.609Z,8.42
2024-02-07T11:18:52.099Z,8.34
2024-02-07T11:21:24.732Z,8.31
2024-02-07T11:23:54.120Z,8.53
2024-02-07T11:26:21.958Z,8.37
2024-02-07T11:28:48.980Z,8.45
2024-02-07T11:31:17.416Z,8.43
2024-02-07T11:33:48.087Z,8.37
2024-02-07T11:36:16.710Z,8.17
2024-02-07T11:38:48.360Z,8.15
2024-02-07T11:41:21.235Z,8.10
2024-02-07T11:43:54.408Z,8.15
2024-02-07T11:46:23.817Z,8.13
2024-02-07T11:48:54.756Z,8.20
2024-02-07T11:51:25.638Z,8.28
2024-02-07T11:54:01.226Z,8.38
2024-02-07T11:56:30.820Z,8.25
2024-02-07T11:58:59.857Z,8.41
2024-02-07T12:01:28.127Z,8.56
2024-02-07T12:03:58.619Z,8.52
2024-02-07T12:06:25.841Z,8.55
2024-02-07T12:08:54.610Z,8.49
2024-02-07T12:11:21.319Z,8.51
2024-02-07T12:13:48.128Z,8.47
2024-02-07T12:16:17.813Z,8.56
2024-02-07T12:18:45.355Z,8.74
2024-02-07T12:21:11.990Z,8.72
2024-02-07T12:23:38.830Z,8.70
2024-02-07T12:26:05.495Z,8.92
2024-02-07T12:28:32.567Z,8.82
2024-02-07T12:31:00.132Z,8.79
2024-02-07T12:33:29.826Z,8.67
2024-02-07T12:35:58.346Z,8.77
2024-02-07T12:38:25.478Z,8.82
2024-02-07T12:40:54.081Z,8.66
2024-02-07T12:43:26.542Z,8.56
2024-02-07T12:45:56.192Z,8.83
2024-02-07T12:48:24.250Z,8.85
2024-02-07T12:50:53.751Z,9.10
2024-02-07T12:53:21.389Z,8.87
2024-02-07T12:55:54.546Z,8.84
2024-02-07T12:58:21.743Z,8.82
2024-02-07T13:00:48.439Z,8.55
2024-02-07T13:03:15.370Z,8.66
2024-02-07T13:05:42.061Z,8.28
2024-02-07T13:08:12.013Z,8.23
2024-02-07T13:10:39.019Z,7.98
2024-02-07T13:13:08.251Z,7.79
2024-02-07T13:15:34.881Z,7.64
2024-02-07T13:18:02.996Z,7.65
2024-02-07T13:20:29.784Z,7.88
2024-02-07T13:22:57.086Z,7.95
2024-02-07T13:25:24.587Z,8.23
2024-02-07T13:27:51.389Z,8.13
2024-02-07T13:30:18.288Z,8.14
2024-02-07T13:32:45.572Z,7.93
2024-02-07T13:35:12.335Z,7.99
2024-02-07T13:37:39.051Z,7.80
2024-02-07T13:40:06.648Z,8.19
2024-02-07T13:42:33.807Z,8.39
2024-02-07T13:45:00.418Z,8.58
2024-02-07T13:47:27.440Z,8.59
2024-02-07T13:49:54.313Z,8.80
2024-02-07T13:52:22.101Z,8.92
2024-02-07T13:54:48.611Z,8.76
2024-02-07T13:57:15.683Z,8.27
2024-02-07T13:59:42.393Z,8.17
2024-02-07T14:02:09.552Z,8.22
2024-02-07T14:04:36.307Z,8.44
2024-02-07T14:07:03.642Z,8.28
2024-02-07T14:09:30.222Z,8.45
2024-02-07T14:11:56.926Z,8.27
2024-02-07T14:14:24.261Z,8.42
2024-02-07T14:16:51.229Z,8.12
2024-02-07T14:19:18.647Z,8.08
2024-02-07T14:21:45.538Z,8.09
2024-02-07T14:24:12.507Z,8.15
2024-02-07T14:26:39.248Z,8.12
2024-02-07T14:29:05.922Z,8.26
2024-02-07T14:31:34.053Z,8.30
2024-02-07T14:34:00.823Z,8.34
2024-02-07T14:36:27.817Z,8.40
2024-02-07T14:38:54.511Z,8.48
2024-02-07T14:41:22.986Z,8.39
2024-02-07T14:43:49.857Z,8.32
2024-02-07T14:46:17.266Z,8.42
2024-02-07T14:48:44.686Z,8.31
2024-02-07T14:51:11.942Z,8.32
2024-02-07T14:53:38.950Z,8.25
2024-02-07T14:56:08.786Z,8.38
2024-02-07T14:58:35.541Z,8.25
2024-02-07T15:01:02.748Z,8.25
2024-02-07T15:03:29.741Z,8.18
2024-02-07T15:05:57.070Z,8.20
2024-02-07T15:08:24.886Z,8.23
2024-02-07T15:10:52.392Z,8.14
2024-02-07T15:13:19.278Z,8.14
2024-02-07T15:15:47.107Z,8.13
2024-02-07T15:18:14.223Z,8.12
2024-02-07T15:20:41.548Z,8.01
2024-02-07T15:23:08.543Z,8.05
2024-02-07T15:25:35.541Z,7.98
2024-02-07T15:28:02.767Z,7.88
2024-02-07T15:30:29.793Z,7.98
2024-02-07T15:32:56.436Z,7.95
2024-02-07T15:35:23.624Z,8.00
2024-02-07T15:37:50.376Z,7.81
2024-02-07T15:40:18.083Z,7.73
2024-02-07T15:42:44.613Z,7.67
2024-02-07T15:45:11.850Z,7.84
2024-02-07T15:47:38.659Z,7.76
2024-02-07T15:50:08.545Z,7.80
2024-02-07T15:52:36.775Z,7.81
2024-02-07T15:55:04.089Z,7.79
2024-02-07T15:57:30.703Z,7.79
2024-02-07T15:59:57.463Z,7.70
2024-02-07T16:02:24.685Z,7.78
2024-02-07T16:04:52.067Z,7.74
2024-02-07T16:07:18.830Z,7.85
2024-02-07T16:09:46.191Z,7.88
2024-02-07T16:12:12.852Z,7.68
2024-02-07T16:14:39.644Z,7.64
2024-02-07T16:17:06.400Z,7.68
2024-02-07T16:19:33.612Z,7.75
2024-02-07T16:22:00.571Z,7.74
2024-02-07T16:24:28.506Z,7.84
2024-02-07T16:26:56.044Z,7.89
2024-02-07T16:29:24.793Z,7.84
2024-02-07T16:31:51.821Z,7.78
2024-02-07T16:34:18.851Z,7.66
2024-02-07T16:36:45.680Z,7.70
2024-02-07T16:39:12.749Z,7.69
2024-02-07T16:41:39.335Z,7.68
2024-02-07T16:44:07.913Z,7.59
2024-02-07T16:46:34.780Z,7.56
2024-02-07T16:49:03.470Z,7.64
2024-02-07T16:51:31.486Z,7.56
2024-02-07T16:53:58.924Z,7.61
2024-02-07T16:56:25.774Z,7.55
2024-02-07T16:58:52.953Z,7.58
2024-02-07T17:01:53.136Z,7.58
2024-02-07T17:04:20.554Z,7.57
2024-02-07T17:06:47.571Z,7.59
2024-02-07T17:09:14.533Z,7.64
2024-02-07T17:11:41.102Z,7.58
2024-02-07T17:14:08.259Z,7.59
2024-02-07T17:16:34.918Z,7.60
2024-02-07T17:19:01.994Z,7.65
2024-02-07T17:21:28.649Z,7.64
2024-02-07T17:23:57.614Z,7.52
2024-02-07T17:26:24.565Z,7.54
2024-02-07T17:28:52.972Z,7.46
2024-02-07T17:31:21.780Z,7.49
2024-02-07T17:33:48.865Z,7.51
2024-02-07T17:36:15.798Z,7.45
2024-02-07T17:38:43.986Z,7.46
2024-02-07T17:41:11.750Z,7.46
2024-02-07T17:43:39.133Z,7.45
2024-02-07T17:46:05.739Z,7.39
2024-02-07T17:48:32.739Z,7.34
2024-02-07T17:51:01.683Z,7.38
2024-02-07T17:53:28.604Z,7.37
2024-02-07T17:55:55.211Z,7.31
2024-02-07T17:58:22.183Z,7.22
2024-02-07T18:00:48.768Z,7.13
2024-02-07T18:03:15.849Z,7.17
2024-02-07T18:05:44.039Z,7.22
2024-02-07T18:08:11.305Z,7.22
2024-02-07T18:10:39.452Z,7.13
2024-02-07T18:13:06.850Z,7.15
2024-02-07T18:18:03.349Z,7.05
2024-02-07T18:20:32.539Z,7.05
2024-02-07T18:23:00.154Z,7.07
2024-02-07T18:25:27.198Z,7.03
2024-02-07T18:27:54.198Z,7.09
2024-02-07T18:30:21.340Z,7.10
2024-02-07T18:32:48.915Z,7.11
2024-02-07T18:35:16.549Z,7.13
2024-02-07T18:37:43.614Z,7.14
2024-02-07T18:40:11.084Z,7.01
2024-02-07T18:42:40.229Z,6.84
2024-02-07T18:45:06.997Z,7.00
2024-02-07T18:47:33.885Z,6.84
2024-02-07T18:50:00.529Z,6.92
2024-02-07T18:52:27.783Z,6.89
2024-02-07T18:54:54.479Z,6.85
2024-02-07T18:57:21.604Z,6.86
2024-02-07T18:59:48.194Z,6.89
2024-02-07T19:02:18.662Z,7.03
2024-02-07T19:04:47.184Z,6.78
2024-02-07T19:07:14.169Z,6.86
2024-02-07T19:09:40.662Z,6.54
2024-02-07T19:12:07.610Z,6.58
2024-02-07T19:14:34.534Z,6.28
2024-02-07T19:17:01.313Z,6.29
2024-02-07T19:19:27.893Z,5.94
2024-02-07T19:21:54.805Z,5.81
2024-02-07T19:24:21.393Z,5.64
2024-02-07T19:26:51.038Z,5.45
2024-02-07T19:29:21.659Z,5.49
2024-02-07T19:31:48.556Z,5.56
2024-02-07T19:34:15.662Z,5.50
2024-02-07T19:36:42.650Z,5.45
2024-02-07T19:39:09.174Z,5.54
2024-02-07T19:41:36.194Z,5.79
2024-02-07T19:44:02.808Z,5.78
2024-02-07T19:46:30.295Z,5.93
2024-02-07T19:48:57.382Z,6.10
2024-02-07T19:51:27.041Z,5.89
2024-02-07T19:53:54.026Z,5.84
2024-02-07T19:56:20.923Z,5.95
2024-02-07T19:58:48.087Z,5.94
2024-02-07T20:01:16.452Z,5.73
2024-02-07T20:03:43.338Z,5.79
2024-02-07T20:06:12.719Z,5.66
2024-02-07T20:08:39.432Z,5.78
2024-02-07T20:11:06.358Z,5.95
2024-02-07T20:13:33.330Z,6.02
2024-02-07T20:16:00.291Z,6.05
2024-02-07T20:18:26.921Z,6.04
2024-02-07T20:20:56.537Z,6.06
2024-02-07T20:23:25.180Z,6.01
2024-02-07T20:26:04.615Z,6.07
2024-02-07T20:28:36.909Z,5.97
2024-02-07T20:31:04.562Z,5.90
2024-02-07T20:33:31.413Z,5.90
2024-02-07T20:35:58.632Z,5.85
2024-02-07T20:38:25.366Z,5.84
2024-02-07T20:40:52.430Z,5.87
2024-02-07T20:43:20.234Z,5.90
2024-02-07T20:45:47.328Z,5.97
2024-02-07T20:48:14.242Z,5.88
2024-02-07T20:50:41.451Z,5.89
2024-02-07T20:53:08.491Z,5.92
2024-02-07T20:55:35.954Z,5.98
2024-02-07T20:58:03.234Z,5.90
2024-02-07T21:00:33.181Z,5.94
2024-02-07T21:03:03.018Z,5.93
2024-02-07T21:05:31.458Z,6.00
2024-02-07T21:07:59.032Z,5.93
2024-02-07T21:10:26.344Z,5.89
2024-02-07T21:12:53.079Z,5.86
2024-02-07T21:15:19.889Z,5.83
2024-02-07T21:17:47.191Z,5.77
2024-02-07T21:20:17.166Z,5.79
2024-02-07T21:22:45.837Z,5.79
2024-02-07T21:25:13.604Z,5.76
2024-02-07T21:27:40.756Z,5.67
2024-02-07T21:30:10.129Z,5.73
2024-02-07T21:32:36.844Z,5.82
2024-02-07T21:35:05.989Z,5.84
2024-02-07T21:37:32.768Z,5.81
2024-02-07T21:40:00.546Z,5.79
2024-02-07T21:42:27.019Z,5.84
2024-02-07T21:44:53.886Z,5.75
2024-02-07T21:47:20.564Z,5.84
2024-02-07T21:49:47.465Z,5.77
2024-02-07T21:52:14.149Z,5.74
2024-02-07T21:54:42.018Z,5.75
2024-02-07T21:57:08.608Z,5.72
2024-02-07T21:59:35.507Z,5.66
2024-02-07T22:02:02.143Z,5.63
2024-02-07T22:04:29.777Z,5.61
2024-02-07T22:06:56.538Z,5.65
2024-02-07T22:09:23.471Z,5.59
2024-02-07T22:11:50.446Z,5.54
2024-02-07T22:14:19.597Z,5.49
2024-02-07T22:16:46.182Z,5.59
2024-02-07T22:19:13.526Z,5.49
2024-02-07T22:21:40.265Z,5.36
2024-02-07T22:24:07.763Z,5.43
2024-02-07T22:26:34.189Z,5.37
2024-02-07T22:29:01.706Z,5.36
2024-02-07T22:31:31.895Z,5.39
2024-02-07T22:34:00.247Z,5.44
2024-02-07T22:36:26.845Z,5.42
2024-02-07T22:38:56.583Z,5.43
2024-02-07T22:41:23.695Z,5.45
2024-02-07T22:43:50.792Z,5.37
2024-02-07T22:46:17.622Z,5.36
2024-02-07T22:48:44.471Z,5.42
2024-02-07T22:51:10.939Z,5.32
2024-02-07T22:53:38.107Z,5.31
2024-02-07T22:56:06.822Z,5.32
2024-02-07T22:58:33.891Z,5.32
2024-02-07T23:01:00.586Z,5.23
2024-02-07T23:03:27.401Z,5.14
2024-02-07T23:05:54.065Z,5.10
2024-02-07T23:08:20.809Z,5.07
2024-02-07T23:10:49.020Z,5.04
2024-02-07T23:13:16.062Z,4.99
2024-02-07T23:15:42.916Z,4.96
2024-02-07T23:18:09.981Z,5.03
2024-02-07T23:20:36.943Z,5.03
2024-02-07T23:23:03.999Z,5.00
2024-02-07T23:25:31.195Z,5.01
2024-02-07T23:27:58.259Z,4.94
2024-02-07T23:30:25.071Z,4.95
2024-02-07T23:32:52.963Z,4.84
2024-02-07T23:35:19.413Z,4.86
2024-02-07T23:37:46.529Z,4.82
2024-02-07T23:40:13.583Z,4.87
2024-02-07T23:42:40.694Z,4.78
2024-02-07T23:45:09.056Z,4.65
2024-02-07T23:47:36.122Z,4.66
2024-02-07T23:50:03.015Z,4.72
2024-02-07T23:52:30.245Z,4.76
2024-02-07T23:54:56.773Z,4.67
2024-02-07T23:57:24.131Z,4.67
2024-02-07T23:59:50.520Z,4.72
